createdAt,value
2022-12-23T00:02:38.789Z,4.67
2022-12-23T00:05:41.374Z,4.64
2022-12-23T00:08:44.241Z,4.68
2022-12-23T00:12:05.552Z,4.74
2022-12-23T00:15:09.013Z,4.72
2022-12-23T00:18:11.510Z,4.75
2022-12-23T00:21:17.754Z,4.82
2022-12-23T00:24:20.379Z,4.84
2022-12-23T00:27:22.668Z,4.85
2022-12-23T00:30:25.997Z,4.82
2022-12-23T00:33:30.870Z,4.69
2022-12-23T00:36:34.004Z,4.68
2022-12-23T00:39:55.480Z,4.69
2022-12-23T00:43:00.403Z,4.61
2022-12-23T00:46:03.350Z,4.59
2022-12-23T00:49:24.259Z,4.52
2022-12-23T00:52:28.292Z,4.50
2022-12-23T00:55:31.493Z,4.47
2022-12-23T00:58:34.464Z,4.45
2022-12-23T01:01:55.998Z,4.55
2022-12-23T01:05:17.347Z,4.60
2022-12-23T01:08:20.402Z,4.55
2022-12-23T01:11:23.537Z,4.51
2022-12-23T01:14:27.043Z,4.48
2022-12-23T01:17:30.520Z,4.37
2022-12-23T01:20:33.661Z,4.36
2022-12-23T01:23:38.042Z,4.29
2022-12-23T01:26:41.414Z,4.13
2022-12-23T01:29:43.726Z,4.06
2022-12-23T01:32:47.133Z,4.06
2022-12-23T01:35:50.127Z,4.00
2022-12-23T01:38:53.343Z,3.97
2022-12-23T01:42:15.457Z,3.97
2022-12-23T01:45:29.890Z,3.97
2022-12-23T01:48:34.260Z,4.11
2022-12-23T01:51:39.468Z,4.25
2022-12-23T01:54:43.832Z,4.33
2022-12-23T01:57:48.966Z,4.29
2022-12-23T02:01:13.070Z,4.34
2022-12-23T02:04:23.168Z,4.43
2022-12-23T02:07:45.088Z,4.42
2022-12-23T02:11:06.836Z,4.34
2022-12-23T02:14:46.762Z,4.19
2022-12-23T02:18:15.866Z,4.11
2022-12-23T02:21:34.256Z,4.00
2022-12-23T02:24:45.625Z,3.88
2022-12-23T02:27:56.290Z,3.74
2022-12-23T02:31:27.799Z,3.69
2022-12-23T02:34:58.373Z,3.74
2022-12-23T02:38:23.217Z,3.73
2022-12-23T02:41:45.449Z,3.70
2022-12-23T02:45:14.549Z,3.71
2022-12-23T02:48:28.301Z,3.59
2022-12-23T02:51:47.183Z,3.64
2022-12-23T02:54:56.505Z,3.69
2022-12-23T02:58:08.750Z,3.73
2022-12-23T03:01:22.475Z,3.69
2022-12-23T03:04:38.197Z,3.64
2022-12-23T03:08:06.073Z,3.54
2022-12-23T03:11:18.565Z,3.66
2022-12-23T03:14:36.058Z,3.57
2022-12-23T03:18:31.493Z,3.57
2022-12-23T03:21:57.430Z,3.64
2022-12-23T03:25:43.602Z,3.62
2022-12-23T03:28:59.941Z,3.58
2022-12-23T03:32:11.743Z,3.58
2022-12-23T03:35:31.901Z,3.56
2022-12-23T03:38:44.624Z,3.48
2022-12-23T03:42:02.102Z,3.48
2022-12-23T03:45:38.301Z,3.53
2022-12-23T03:48:51.949Z,3.48
2022-12-23T03:52:40.056Z,3.49
2022-12-23T03:56:05.129Z,3.39
2022-12-23T03:59:42.112Z,3.43
2022-12-23T04:03:44.640Z,3.48
2022-12-23T04:07:12.270Z,3.47
2022-12-23T04:10:24.181Z,3.55
2022-12-23T04:13:39.496Z,3.57
2022-12-23T04:16:45.808Z,3.51
2022-12-23T04:20:06.758Z,3.53
2022-12-23T04:23:09.632Z,3.46
2022-12-23T04:26:22.430Z,3.46
2022-12-23T04:29:39.449Z,3.43
2022-12-23T04:32:48.190Z,3.48
2022-12-23T04:35:57.823Z,3.37
2022-12-23T04:39:10.053Z,3.31
2022-12-23T04:42:27.785Z,3.36
2022-12-23T04:45:41.248Z,3.23
2022-12-23T04:49:01.532Z,3.27
2022-12-23T04:52:29.167Z,3.26
2022-12-23T04:55:32.964Z,3.27
2022-12-23T04:58:46.419Z,3.27
2022-12-23T05:01:53.863Z,3.17
2022-12-23T05:04:59.493Z,3.17
2022-12-23T05:08:06.982Z,3.18
2022-12-23T05:11:12.225Z,3.17
2022-12-23T05:14:25.157Z,3.15
2022-12-23T05:17:27.947Z,3.05
2022-12-23T05:20:30.805Z,2.93
2022-12-23T05:23:43.713Z,2.87
2022-12-23T05:26:54.242Z,2.84
2022-12-23T05:30:05.488Z,2.83
2022-12-23T05:33:16.337Z,2.84
2022-12-23T05:36:31.447Z,2.80
2022-12-23T05:39:39.047Z,2.74
2022-12-23T05:42:50.979Z,2.69
2022-12-23T05:45:58.314Z,2.67
2022-12-23T05:49:03.130Z,2.62
2022-12-23T05:52:06.269Z,2.61
2022-12-23T05:55:18.422Z,2.63
2022-12-23T05:58:34.184Z,2.58
2022-12-23T06:01:38.190Z,2.59
2022-12-23T06:04:50.591Z,2.63
2022-12-23T06:07:54.361Z,2.56
2022-12-23T06:10:57.063Z,2.47
2022-12-23T06:14:09.243Z,2.42
2022-12-23T06:17:28.161Z,2.40
2022-12-23T06:20:39.588Z,2.50
2022-12-23T06:23:43.008Z,2.36
2022-12-23T06:26:56.502Z,2.37
2022-12-23T06:29:59.945Z,2.47
2022-12-23T06:33:06.134Z,2.40
2022-12-23T06:36:17.633Z,2.39
2022-12-23T06:39:33.736Z,2.37
2022-12-23T06:42:35.955Z,2.32
2022-12-23T06:45:56.642Z,2.32
2022-12-23T06:49:10.960Z,2.35
2022-12-23T06:52:19.898Z,2.40
2022-12-23T06:56:13.089Z,2.42
2022-12-23T06:59:39.838Z,2.47
2022-12-23T07:02:45.331Z,2.41
2022-12-23T07:05:57.416Z,2.46
2022-12-23T07:09:06.763Z,2.52
2022-12-23T07:12:18.628Z,2.53
2022-12-23T07:15:41.965Z,2.38
2022-12-23T07:18:51.565Z,2.34
2022-12-23T07:22:11.957Z,2.30
2022-12-23T07:25:20.093Z,2.30
2022-12-23T07:28:27.678Z,2.35
2022-12-23T07:31:46.278Z,2.42
2022-12-23T07:34:50.091Z,2.50
2022-12-23T07:37:58.580Z,2.38
2022-12-23T07:41:02.157Z,2.34
2022-12-23T07:44:05.353Z,2.42
2022-12-23T07:47:08.256Z,2.59
2022-12-23T07:50:19.054Z,2.55
2022-12-23T07:53:22.980Z,2.51
2022-12-23T07:56:27.161Z,2.47
2022-12-23T07:59:32.195Z,2.40
2022-12-23T08:02:36.630Z,2.43
2022-12-23T08:05:40.103Z,2.43
2022-12-23T08:08:48.021Z,2.55
2022-12-23T08:11:51.419Z,2.64
2022-12-23T08:14:56.386Z,2.71
2022-12-23T08:18:01.071Z,2.78
2022-12-23T08:21:15.750Z,2.96
2022-12-23T08:24:19.078Z,3.04
2022-12-23T08:27:24.020Z,2.98
2022-12-23T08:30:27.533Z,3.05
2022-12-23T08:33:33.147Z,3.03
2022-12-23T08:36:38.386Z,2.93
2022-12-23T08:39:48.040Z,2.91
2022-12-23T08:42:52.389Z,2.86
2022-12-23T08:45:55.887Z,2.90
2022-12-23T08:49:01.990Z,2.83
2022-12-23T08:52:10.021Z,2.91
2022-12-23T08:55:22.242Z,2.89
2022-12-23T08:58:31.315Z,2.80
2022-12-23T09:01:37.409Z,2.93
2022-12-23T09:04:44.979Z,2.97
2022-12-23T09:07:49.086Z,3.05
2022-12-23T09:10:51.590Z,3.09
2022-12-23T09:13:58.340Z,3.01
2022-12-23T09:17:04.608Z,3.11
2022-12-23T09:20:09.664Z,3.01
2022-12-23T09:23:20.513Z,3.04
2022-12-23T09:26:31.333Z,3.03
2022-12-23T09:29:37.126Z,3.04
2022-12-23T09:32:41.370Z,2.98
2022-12-23T09:35:45.568Z,3.05
2022-12-23T09:38:55.621Z,2.96
2022-12-23T09:42:36.915Z,2.89
2022-12-23T09:45:53.130Z,3.01
2022-12-23T09:49:10.349Z,3.09
2022-12-23T09:52:24.715Z,3.07
2022-12-23T09:55:52.295Z,2.98
2022-12-23T09:59:18.417Z,2.92
2022-12-23T10:02:40.492Z,2.86
2022-12-23T10:05:59.196Z,2.83
2022-12-23T10:09:05.260Z,2.86
2022-12-23T10:12:40.155Z,2.89
2022-12-23T10:15:55.628Z,2.79
2022-12-23T10:19:35.354Z,2.76
2022-12-23T10:22:44.357Z,2.92
2022-12-23T10:25:52.623Z,3.01
2022-12-23T10:29:16.830Z,3.09
2022-12-23T10:32:55.336Z,3.15
2022-12-23T10:36:15.538Z,3.15
2022-12-23T10:39:30.701Z,3.20
2022-12-23T10:42:44.512Z,3.22
2022-12-23T10:45:51.808Z,3.26
2022-12-23T10:49:17.339Z,3.34
2022-12-23T10:52:26.766Z,3.35
2022-12-23T10:55:42.356Z,3.36
2022-12-23T10:58:59.587Z,3.37
2022-12-23T11:02:08.254Z,3.36
2022-12-23T11:05:21.646Z,3.33
2022-12-23T11:08:30.564Z,3.32
2022-12-23T11:12:09.025Z,3.23
2022-12-23T11:15:36.327Z,3.23
2022-12-23T11:18:57.259Z,3.36
2022-12-23T11:22:15.086Z,3.37
2022-12-23T11:25:45.741Z,3.27
2022-12-23T11:28:52.987Z,3.25
2022-12-23T11:31:56.892Z,3.24
2022-12-23T11:35:09.555Z,3.24
2022-12-23T11:38:20.635Z,3.35
2022-12-23T11:41:51.178Z,3.41
2022-12-23T11:45:05.640Z,3.43
2022-12-23T11:48:33.447Z,3.51
2022-12-23T11:51:45.100Z,3.51
2022-12-23T11:54:54.688Z,3.42
2022-12-23T11:58:08.495Z,3.51
2022-12-23T12:01:44.299Z,3.45
2022-12-23T12:05:14.443Z,3.45
2022-12-23T12:08:41.529Z,3.56
2022-12-23T12:11:58.856Z,3.57
2022-12-23T12:15:13.178Z,3.58
2022-12-23T12:18:20.428Z,3.67
2022-12-23T12:21:35.783Z,3.56
2022-12-23T12:25:04.224Z,3.48
2022-12-23T12:28:25.902Z,3.59
2022-12-23T12:31:54.675Z,3.78
2022-12-23T12:35:28.116Z,3.80
2022-12-23T12:38:45.230Z,3.66
2022-12-23T12:42:06.039Z,3.63
2022-12-23T12:45:40.619Z,3.53
2022-12-23T12:48:58.933Z,3.67
2022-12-23T12:52:28.435Z,3.82
2022-12-23T12:55:38.577Z,3.97
2022-12-23T12:58:51.400Z,4.03
2022-12-23T13:02:49.328Z,4.03
2022-12-23T13:06:24.318Z,4.03
2022-12-23T13:09:50.259Z,4.03
2022-12-23T13:13:36.142Z,4.03
2022-12-23T13:16:51.570Z,4.03
2022-12-23T13:20:38.362Z,4.07
2022-12-23T13:24:04.295Z,4.05
2022-12-23T13:27:26.930Z,4.06
2022-12-23T13:30:54.545Z,4.07
2022-12-23T13:34:21.028Z,4.12
2022-12-23T13:37:52.939Z,4.06
2022-12-23T13:41:27.834Z,4.06
2022-12-23T13:44:39.230Z,4.11
2022-12-23T13:48:27.302Z,4.19
2022-12-23T13:51:48.897Z,4.22
2022-12-23T13:55:29.777Z,4.12
2022-12-23T13:58:37.301Z,4.06
2022-12-23T14:01:45.166Z,4.13
2022-12-23T14:05:03.255Z,4.04
2022-12-23T14:08:45.573Z,3.95
2022-12-23T14:11:50.879Z,4.08
2022-12-23T14:15:13.647Z,4.02
2022-12-23T14:19:08.220Z,3.89
2022-12-23T14:22:39.448Z,3.84
2022-12-23T14:25:45.040Z,3.89
2022-12-23T14:29:45.288Z,3.96
2022-12-23T14:33:03.526Z,3.83
2022-12-23T14:36:27.796Z,3.91
2022-12-23T14:39:35.610Z,3.98
2022-12-23T14:42:55.618Z,3.98
2022-12-23T14:46:37.615Z,3.92
2022-12-23T14:49:44.425Z,3.87
2022-12-23T14:53:09.599Z,3.78
2022-12-23T14:56:19.762Z,3.74
2022-12-23T14:59:42.163Z,3.77
2022-12-23T15:02:50.677Z,3.87
2022-12-23T15:05:55.663Z,3.86
2022-12-23T15:09:08.052Z,3.89
2022-12-23T15:12:20.567Z,3.88
2022-12-23T15:15:34.005Z,3.86
2022-12-23T15:18:43.988Z,3.88
2022-12-23T15:21:56.525Z,3.89
2022-12-23T15:25:21.421Z,3.96
2022-12-23T15:28:46.913Z,3.92
2022-12-23T15:31:58.030Z,4.02
2022-12-23T15:35:09.195Z,4.03
2022-12-23T15:38:23.466Z,4.05
2022-12-23T15:41:50.968Z,4.10
2022-12-23T15:45:01.107Z,4.11
2022-12-23T15:48:06.646Z,4.09
2022-12-23T15:51:50.084Z,4.09
2022-12-23T15:55:16.501Z,3.98
2022-12-23T15:58:42.134Z,3.87
2022-12-23T16:01:46.042Z,3.86
2022-12-23T16:05:14.157Z,3.89
2022-12-23T16:12:25.834Z,3.92
2022-12-23T16:15:38.176Z,3.93
2022-12-23T16:19:04.550Z,3.85
2022-12-23T16:22:37.115Z,3.94
2022-12-23T16:26:05.927Z,3.89
2022-12-23T16:29:21.394Z,3.92
2022-12-23T16:32:24.604Z,3.93
2022-12-23T16:35:39.046Z,3.88
2022-12-23T16:39:03.466Z,3.82
2022-12-23T16:42:10.179Z,3.85
2022-12-23T16:45:22.997Z,3.79
2022-12-23T16:48:45.244Z,3.83
2022-12-23T16:51:48.859Z,3.80
2022-12-23T16:55:05.604Z,3.74
2022-12-23T16:58:17.091Z,3.77
2022-12-23T17:01:48.752Z,3.80
2022-12-23T17:05:12.104Z,3.86
2022-12-23T17:08:23.454Z,3.84
2022-12-23T17:11:39.253Z,3.82
2022-12-23T17:14:43.668Z,3.77
2022-12-23T17:17:50.653Z,3.75
2022-12-23T17:20:57.430Z,3.72
2022-12-23T17:24:19.265Z,3.78
2022-12-23T17:27:26.240Z,3.73
2022-12-23T17:30:31.281Z,3.67
2022-12-23T17:33:37.722Z,3.83
2022-12-23T17:36:50.799Z,3.87
2022-12-23T17:39:54.281Z,3.83
2022-12-23T17:42:58.681Z,3.86
2022-12-23T17:46:02.081Z,3.82
2022-12-23T17:49:21.143Z,3.81
2022-12-23T17:52:26.007Z,3.91
2022-12-23T17:55:30.009Z,4.02
2022-12-23T17:58:34.537Z,3.99
2022-12-23T18:01:38.034Z,3.97
2022-12-23T18:04:54.887Z,3.97
2022-12-23T18:08:03.807Z,4.02
2022-12-23T18:11:18.726Z,4.15
2022-12-23T18:14:48.302Z,4.25
2022-12-23T18:18:03.561Z,4.29
2022-12-23T18:21:11.661Z,4.22
2022-12-23T18:24:17.305Z,4.16
2022-12-23T18:27:25.758Z,4.13
2022-12-23T18:31:08.195Z,3.98
2022-12-23T18:34:16.697Z,3.95
2022-12-23T18:37:30.701Z,3.97
2022-12-23T18:40:37.647Z,4.07
2022-12-23T18:43:41.359Z,4.04
2022-12-23T18:46:54.033Z,4.05
2022-12-23T18:49:57.464Z,4.01
2022-12-23T18:53:01.362Z,3.99
2022-12-23T18:56:03.976Z,4.00
2022-12-23T18:59:08.250Z,4.01
2022-12-23T19:02:22.998Z,3.98
2022-12-23T19:05:46.384Z,3.98
2022-12-23T19:08:53.911Z,4.01
2022-12-23T19:11:58.673Z,4.11
2022-12-23T19:15:17.166Z,4.09
2022-12-23T19:18:23.414Z,4.03
2022-12-23T19:21:36.255Z,3.97
2022-12-23T19:24:58.099Z,4.01
2022-12-23T19:28:08.917Z,4.04
2022-12-23T19:31:34.460Z,4.09
2022-12-23T19:34:38.998Z,4.09
2022-12-23T19:37:44.672Z,4.08
2022-12-23T19:41:05.363Z,4.02
2022-12-23T19:44:13.824Z,4.11
2022-12-23T19:47:30.503Z,4.07
2022-12-23T19:50:35.896Z,4.09
2022-12-23T19:53:43.796Z,4.25
2022-12-23T19:57:18.892Z,4.23
2022-12-23T20:00:28.060Z,4.18
2022-12-23T20:03:44.498Z,4.10
2022-12-23T20:06:49.703Z,4.14
2022-12-23T20:09:53.964Z,4.17
2022-12-23T20:13:06.414Z,4.11
2022-12-23T20:16:19.395Z,4.09
2022-12-23T20:19:30.672Z,4.06
2022-12-23T20:22:42.759Z,4.13
2022-12-23T20:25:57.808Z,4.17
2022-12-23T20:29:04.069Z,4.15
2022-12-23T20:32:12.009Z,4.13
2022-12-23T20:35:15.244Z,4.11
2022-12-23T20:38:26.443Z,4.02
2022-12-23T20:41:43.802Z,3.92
2022-12-23T20:44:58.240Z,3.86
2022-12-23T20:48:04.517Z,3.85
2022-12-23T20:51:25.106Z,3.85
2022-12-23T20:54:33.295Z,3.88
2022-12-23T20:57:38.584Z,3.88
2022-12-23T21:00:50.771Z,3.84
2022-12-23T21:04:09.446Z,3.87
2022-12-23T21:07:14.391Z,3.87
2022-12-23T21:10:27.104Z,3.88
2022-12-23T21:13:46.168Z,3.88
2022-12-23T21:17:01.090Z,3.96
2022-12-23T21:20:12.313Z,4.01
2022-12-23T21:23:18.446Z,4.03
2022-12-23T21:26:47.756Z,4.02
2022-12-23T21:30:11.041Z,3.95
2022-12-23T21:33:18.210Z,3.98
2022-12-23T21:36:27.065Z,4.01
2022-12-23T21:39:31.833Z,4.25
2022-12-23T21:42:46.399Z,4.19
2022-12-23T21:46:01.036Z,4.17
2022-12-23T21:49:11.207Z,4.16
2022-12-23T21:52:16.920Z,4.15
2022-12-23T21:55:21.373Z,4.09
2022-12-23T21:58:32.732Z,4.07
2022-12-23T22:01:39.162Z,4.17
2022-12-23T22:04:52.257Z,4.17
2022-12-23T22:08:03.354Z,4.09
2022-12-23T22:11:12.439Z,4.16
2022-12-23T22:14:17.496Z,4.22
2022-12-23T22:17:29.220Z,4.21
2022-12-23T22:20:47.427Z,4.14
2022-12-23T22:23:52.110Z,4.18
2022-12-23T22:27:09.336Z,4.14
2022-12-23T22:30:12.375Z,4.16
2022-12-23T22:33:31.173Z,4.12
2022-12-23T22:36:34.717Z,4.10
2022-12-23T22:39:37.376Z,4.15
2022-12-23T22:42:40.229Z,4.13
2022-12-23T22:45:56.330Z,4.05
2022-12-23T22:49:00.095Z,4.03
2022-12-23T22:52:02.922Z,4.08
2022-12-23T22:55:17.600Z,4.15
2022-12-23T22:58:20.458Z,4.22
2022-12-23T23:01:32.825Z,4.29
2022-12-23T23:04:36.099Z,4.18
2022-12-23T23:07:44.515Z,4.14
2022-12-23T23:10:47.385Z,4.25
2022-12-23T23:13:59.439Z,4.24
2022-12-23T23:17:10.493Z,4.27
2022-12-23T23:20:16.365Z,4.34
2022-12-23T23:23:22.319Z,4.35
2022-12-23T23:26:29.391Z,4.38
2022-12-23T23:29:35.627Z,4.33
2022-12-23T23:32:38.365Z,4.36
2022-12-23T23:35:41.086Z,4.31
2022-12-23T23:38:44.341Z,4.26
2022-12-23T23:41:47.014Z,4.19
2022-12-23T23:44:49.882Z,4.18
2022-12-23T23:47:52.213Z,4.16
2022-12-23T23:51:03.141Z,4.16
2022-12-23T23:54:05.950Z,4.18
2022-12-23T23:57:08.154Z,4.19
